Tiempo atmosférico en la estación meteorológica de Alburquerque, Badajoz (283 m.)

Fecha
DESCASC
Temp. máxima en grados centígrados (hora)
DESCASC
Temp. mínima en grados centígrados (hora)
DESCASC
Temp. media en grados centígrados
DESCASC
Racha de viento máxima en m/sg (hora)
DESCASC
Velocidad máxima media en intervalos de 10 minutos(hora)
DESCASC
Precipitaciones diarias en mm
DESCASC
Precipitaciones de 00:00 a 06:00 en mm
DESCASC
Precipitaciones de 06:00 a 12:00 en mm
DESCASC
Precipitaciones de 12:00 a 18:00 en mm
DESCASC
Precipitaciones de 18:00 a 24:00 en mm
DESCASC
24-09-2017 31 (16:20) 13.3 (08:40) 22.2 8.33 (16:40) 4.44 (16:50) 0 0 0 0 0
23-09-2017 31.3 (19:10) 13.1 (08:00) 22.2 5.83 (15:40) 3.33 (16:40) 0 0 0 0 0
22-09-2017 29.9 (17:20) 12.9 (07:10) 21.4 6.67 (13:20) 2.5 (14:50) 0 0 0 0 0
21-09-2017 29.7 (17:40) 12.4 (00:00) 21.1 7.78 (15:20) 3.89 (15:20) 0 0 0 0 0
20-09-2017 31.4 (17:50) 10.9 (00:00) 21.1 5.83 (16:20) 3.33 (14:20) 0 0 0 0 0
19-09-2017 29.8 (17:00) 12.3 (00:00) 21 6.39 (13:50) 3.06 (15:00) 0 0 0 0 0
18-09-2017 26.5 (18:30) 9 (00:00) 17.8 10.28 (14:00) 5 (14:00) 0 0 0 0 0
17-09-2017 27.4 (17:30) 8.5 (00:00) 17.9 8.89 (15:00) 4.17 (16:50) 0 0 0 0 0
16-09-2017 26 (17:00) 12.6 (00:00) 19.3 9.17 (09:20) 5.28 (09:40) 0 0 0 0 0
15-09-2017 25.6 (16:50) 11.3 (00:00) 18.5 12.5 (16:50) 5.28 (18:50) 0 0 0 0 0
14-09-2017 32.2 (17:30) 13 (00:00) 22.6 9.44 (17:00) 5 (20:40) 0 0 0 0 0
13-09-2017 34.8 (17:40) 17.2 (00:00) 26 8.06 (18:30) 4.17 (18:50) 0 0 0 0 0
12-09-2017 31.9 (17:10) 17.7 (00:00) 24.8 10 (13:00) 5 (12:10) 0 0 0 0 0
11-09-2017 34.2 (17:20) 16.5 (00:00) 25.4 10.28 (20:00) 5.28 (20:10) 0 0 0 0 0
10-09-2017 28.5 (18:10) 13.8 (00:00) 21.2 9.44 (00:10) 5 (00:10) 0 0 0 0 0
09-09-2017 27.2 (16:30) 13 (00:00) 20.1 12.5 (16:20) 6.39 (16:50) 0 0 0 0 0
08-09-2017 35 (16:40) 13.8 (00:00) 24.4 10 (19:10) 5.28 (17:50) 0 0 0 0 0
07-09-2017 35.4 (17:30) 22.4 (00:00) 28.9 10 (15:10) 5.28 (05:10) 0 0 0 0 0
06-09-2017 37.2 (17:10) 17.5 (00:00) 27.4 6.11 (14:50) 3.06 (20:40) 0 0 0 0 0
05-09-2017 34.7 (18:30) 16.3 (00:00) 25.5 6.94 (16:10) 3.06 (19:50) 0 0 0 0 0
04-09-2017 32.2 (17:10) 16.1 (00:00) 24.2 9.72 (16:30) 5 (17:30) 0 0 0 0 0
03-09-2017 34.1 (16:30) 15.3 (00:00) 24.7 9.72 (16:30) 5.56 (17:10) 0 0 0 0 0
02-09-2017 34.2 (17:30) 20.6 (00:00) 27.4 11.94 (00:40) 6.67 (01:00) 0 0 0 0 0
01-09-2017 33.8 (17:20) 20.7 (00:00) 27.3 10 (22:40) 5.28 (23:00) 0 0 0 0 0
31-08-2017 31.9 (18:10) 15.4 (00:00) 23.6 6.94 (14:40) 3.33 (17:00) 0 0 0 0 0
30-08-2017 28.7 (17:30) 13.7 (00:00) 21.2 7.5 (18:40) 4.17 (16:40) 0 0 0 0 0
29-08-2017 26.4 (17:50) 17.3 (00:00) 21.8 11.11 (19:20) 6.67 (19:40) 2.2 2 0.2 0 0
28-08-2017 28.3 (18:20) 18.2 (00:00) 23.3 9.72 (19:00) 4.72 (14:40) 0 0 0 0 0
27-08-2017 31.1 (16:20) 20.7 (00:00) 25.9 11.11 (16:30) 5.83 (15:40) 0 0 0 0 0
26-08-2017 33.6 (16:40) 16.8 (00:00) 25.2 15.56 (13:40) 6.11 (16:10) 2 0 0 2 0

Gráficas

Temp. máximas Temp. mínimas Temp. medias Precipitaciones Rachas de viento máximas Velocidades máximas media en intervalos de 10 minutos

Datos horarios

Fecha y hora oficial Temperatura (ºC) Velocidad del viento (km/h) Dirección del viento Racha (km/h) Dirección de racha Precipitación (mm) Presión (hPa) Tendencia (hPa) Humedad (%)
2017-09-24 23:00:00 19 2 Norte 5 Nordeste 0 -- -- 24
2017-09-24 22:00:00 22.3 3 Noroeste 7 Noroeste 0 -- -- 21
2017-09-24 21:00:00 24.8 2 Noroeste 17 Noroeste 0 -- -- 18
2017-09-24 20:00:00 28.2 10 Noroeste 23 Noroeste 0 -- -- 14
2017-09-24 19:00:00 29.7 14 Noroeste 27 Oeste 0 -- -- 20
2017-09-24 18:00:00 30.7 13 Noroeste 27 Noroeste 0 -- -- 27
2017-09-24 17:00:00 31 11 Noroeste 30 Noroeste 0 -- -- 29
2017-09-24 16:00:00 30.5 15 Noroeste 29 Noroeste 0 -- -- 31
2017-09-24 15:00:00 30.4 11 Oeste 26 Oeste 0 -- -- 31
2017-09-24 14:00:00 29.5 10 Oeste 22 Noroeste 0 -- -- 32
2017-09-24 13:00:00 27.8 9 Sudoeste 16 Sudoeste 0 -- -- 34
2017-09-24 12:00:00 24.8 4 Oeste 9 Sudoeste 0 -- -- 34
2017-09-24 11:00:00 21.4 0 Calma 5 Sur 0 -- -- 49
2017-09-24 10:00:00 16.3 2 Este 8 Noroeste 0 -- -- 62
2017-09-24 09:00:00 13.5 0 Calma 4 Sudeste 0 -- -- 68
2017-09-24 08:00:00 13.6 3 Este 7 Noroeste 0 -- -- 64
2017-09-24 07:00:00 14 0 Calma 5 Sudeste 0 -- -- 66
2017-09-24 06:00:00 14.5 0 Calma -- -- 0 -- -- 64
2017-09-24 05:00:00 15.5 0 Calma -- -- 0 -- -- 62
2017-09-24 04:00:00 16.3 0 Calma 0 Calma 0 -- -- 60
2017-09-24 03:00:00 16.5 0 Calma 2 Nordeste 0 -- -- 58
2017-09-24 02:00:00 18.3 0 Calma 6 Oeste 0 -- -- 53
2017-09-24 01:00:00 20.5 2 Noroeste 13 Norte 0 -- -- 49
2017-09-24 00:00:00 22.6 6 Noroeste 14 Noroeste 0 -- -- 47
2017-09-23 23:00:00 22.9 3 Noroeste 10 Norte 0 -- -- 42
2017-09-23 22:00:00 24.8 6 Noroeste 14 Norte 0 -- -- 38
2017-09-23 21:00:00 26.7 2 Norte 13 Noroeste 0 -- -- 32
2017-09-23 20:00:00 29.5 7 Noroeste 15 Oeste 0 -- -- 29
2017-09-23 19:00:00 31 7 Oeste 17 Oeste 0 -- -- 28
2017-09-23 18:00:00 30.9 5 Sur 20 Sudoeste 0 -- -- 27
2017-09-23 17:00:00 31 8 Sur 20 Sudoeste 0 -- -- 28
2017-09-23 16:00:00 30.5 10 Sur 21 Sudoeste 0 -- -- 30
2017-09-23 15:00:00 29.7 11 Sur 19 Sudoeste 0 -- -- 32
2017-09-23 14:00:00 29.4 7 Oeste 17 Oeste 0 -- -- 33
2017-09-23 13:00:00 27.6 6 Noroeste 14 Oeste 0 -- -- 35
2017-09-23 12:00:00 25.7 4 Sur 8 Sur 0 -- -- 44
2017-09-23 11:00:00 21.9 2 Oeste 6 Sur 0 -- -- 53
2017-09-23 10:00:00 17.3 0 Calma 4 Sudoeste 0 -- -- 62
2017-09-23 09:00:00 13.5 0 Calma 2 Sudeste 0 -- -- 69
2017-09-23 08:00:00 13.1 0 Calma 5 Sudeste 0 -- -- 69
2017-09-23 07:00:00 13.4 0 Calma 4 Sur 0 -- -- 67
2017-09-23 06:00:00 13.8 0 Calma 4 Sudeste 0 -- -- 65
2017-09-23 05:00:00 14.6 2 Sudeste 4 Sudeste 0 -- -- 61
2017-09-23 04:00:00 15.6 5 Noroeste 6 Noroeste 0 -- -- 58
2017-09-23 03:00:00 16.1 2 Nordeste 4 Norte 0 -- -- 56
2017-09-23 02:00:00 17 0 Calma -- -- 0 -- -- 52
2017-09-23 01:00:00 17.1 0 Calma -- -- 0 -- -- 52
2017-09-23 00:00:00 18.3 0 Calma 5 Sudeste 0 -- -- 47
2017-09-22 23:00:00 19.9 0 Calma 4 Sur 0 -- -- 43
2017-09-22 22:00:00 21.8 0 Calma 6 Noroeste 0 -- -- 41
2017-09-22 21:00:00 24.8 4 Norte 10 Oeste 0 -- -- 36
2017-09-22 20:00:00 28.3 6 Oeste 13 Oeste 0 -- -- 32
2017-09-22 19:00:00 29.2 5 Sudoeste 15 Sudeste 0 -- -- 31
2017-09-22 18:00:00 29.5 5 Sur 15 Sur 0 -- -- 30
2017-09-22 17:00:00 29.6 6 Sudoeste 19 Sudoeste 0 -- -- 32
2017-09-22 16:00:00 28.5 8 Noroeste 19 Oeste 0 -- -- 34
2017-09-22 15:00:00 27.6 3 Sudoeste 17 Sudoeste 0 -- -- 39
2017-09-22 14:00:00 25.8 6 Sudoeste 24 Oeste 0 -- -- 45
2017-09-22 13:00:00 23.6 5 Sudoeste 12 Sur 0 -- -- 56
2017-09-22 12:00:00 20.9 4 Sur 9 Sudoeste 0 -- -- 69
2017-09-22 11:00:00 17 3 Oeste 8 Oeste 0 -- -- 80
2017-09-22 10:00:00 15 3 Oeste 9 Oeste 0 -- -- 83
2017-09-22 09:00:00 14.2 2 Oeste 7 Sudoeste 0 -- -- 84
2017-09-22 08:00:00 13 3 Sudeste 4 Sudeste 0 -- -- 86
2017-09-22 07:00:00 13 0 Calma 4 Este 0 -- -- 85
2017-09-22 06:00:00 13.6 0 Calma 4 Este 0 -- -- 85
2017-09-22 05:00:00 14 0 Calma 5 Nordeste 0 -- -- 83
2017-09-22 04:00:00 14.4 0 Calma 4 Noroeste 0 -- -- 80
2017-09-22 03:00:00 15.3 0 Calma 6 Sudeste 0 -- -- 76
2017-09-22 02:00:00 16.7 3 Sudeste 6 Oeste 0 -- -- 72
2017-09-22 01:00:00 18.1 4 Oeste 7 Oeste 0 -- -- 64
2017-09-22 00:00:00 20.5 3 Oeste 13 Noroeste 0 -- -- 59
2017-09-21 23:00:00 20.7 3 Noroeste 9 Noroeste 0 -- -- 52
2017-09-21 22:00:00 22.7 2 Norte 6 Noroeste 0 -- -- 45
2017-09-21 21:00:00 24.8 3 Noroeste 16 Noroeste 0 -- -- 40
2017-09-21 20:00:00 27.9 8 Oeste 17 Oeste 0 -- -- 33
2017-09-21 19:00:00 29 8 Noroeste 20 Oeste 0 -- -- 24
2017-09-21 18:00:00 29.6 10 Oeste 22 Sudoeste 0 -- -- 22
2017-09-21 17:00:00 28.5 11 Oeste 26 Sudoeste 0 -- -- 22
2017-09-21 16:00:00 27.5 13 Oeste 28 Oeste 0 -- -- 26
2017-09-21 15:00:00 27.6 13 Oeste 24 Sudoeste 0 -- -- 28
2017-09-21 14:00:00 27 12 Oeste 23 Noroeste 0 -- -- 31
2017-09-21 13:00:00 24.7 11 Sudoeste 21 Sudoeste 0 -- -- 41
2017-09-21 12:00:00 22.7 8 Sudoeste 14 Sudoeste 0 -- -- 47
2017-09-21 11:00:00 19.9 3 Oeste 6 Noroeste 0 -- -- 56
2017-09-21 10:00:00 17.5 2 Sur 6 Sudeste 0 -- -- 66
2017-09-21 09:00:00 13 2 Nordeste 4 Este 0 -- -- 72
2017-09-21 08:00:00 12.5 2 Norte 5 Noroeste 0 -- -- 66
2017-09-21 07:00:00 13 2 Este 3 Este 0 -- -- 65
2017-09-21 06:00:00 13.8 3 Nordeste 7 Noroeste 0 -- -- 58
2017-09-21 05:00:00 14.8 0 Calma 2 Este 0 -- -- 59
2017-09-21 04:00:00 15.5 0 Calma 6 Este 0 -- -- 55
2017-09-21 03:00:00 15.9 4 Sudeste 6 Este 0 -- -- 52
2017-09-21 02:00:00 16.8 0 Calma -- -- 0 -- -- 49
2017-09-21 01:00:00 17.6 0 Calma -- -- 0 -- -- 48
2017-09-21 00:00:00 18.6 0 Calma -- -- 0 -- -- 46
2017-09-20 23:00:00 20.3 0 Calma -- -- 0 -- -- 43
2017-09-20 22:00:00 23.1 0 Calma 10 Noroeste 0 -- -- 36
2017-09-20 21:00:00 24.5 2 Este 4 Sudoeste 0 -- -- 33
2017-09-20 20:00:00 30 5 Sudoeste 13 Sur 0 -- -- 27
2017-09-20 19:00:00 31 6 Sudoeste 15 Sudoeste 0 -- -- 25
2017-09-20 18:00:00 31.3 8 Sudoeste 16 Oeste 0 -- -- 24
2017-09-20 17:00:00 31 9 Sudoeste 21 Sudoeste 0 -- -- 23
2017-09-20 16:00:00 30.6 6 Oeste 18 Sudeste 0 -- -- 25
2017-09-20 15:00:00 29.8 6 Sudoeste 20 Sudoeste 0 -- -- 28
2017-09-20 14:00:00 28.8 6 Sudeste 17 Sur 0 -- -- 30
2017-09-20 13:00:00 27 8 Sur 15 Sur 0 -- -- 34
2017-09-20 12:00:00 24.7 9 Sur 15 Sudeste 0 -- -- 41
2017-09-20 11:00:00 20.5 0 Calma 0 Calma 0 -- -- 53
2017-09-20 10:00:00 15.5 0 Calma 3 Norte 0 -- -- 64
2017-09-20 09:00:00 11.4 2 Norte 4 Noroeste 0 -- -- 71
2017-09-20 08:00:00 11.4 0 Calma -- -- 0 -- -- 66
2017-09-20 07:00:00 11.5 0 Calma -- -- 0 -- -- 69
2017-09-20 06:00:00 12.1 0 Calma -- -- 0 -- -- 67
2017-09-20 05:00:00 12.9 0 Calma -- -- 0 -- -- 63
2017-09-20 04:00:00 13.6 0 Calma -- -- 0 -- -- 62
2017-09-20 03:00:00 14 0 Calma 3 Sudeste 0 -- -- 58
2017-09-20 02:00:00 14.6 3 Este 5 Este 0 -- -- 52
2017-09-20 01:00:00 15.8 3 Sudeste 5 Sur 0 -- -- 47
2017-09-20 00:00:00 17.4 0 Calma 8 Noroeste 0 -- -- 42
2017-09-19 23:00:00 19.1 2 Oeste 6 Nordeste 0 -- -- 39
2017-09-19 22:00:00 20.8 4 Este 6 Sudeste 0 -- -- 36
2017-09-19 21:00:00 24.5 0 Calma 8 Este 0 -- -- 31
2017-09-19 20:00:00 28.2 5 Nordeste 10 Nordeste 0 -- -- 28
2017-09-19 19:00:00 29.3 6 Nordeste 17 Norte 0 -- -- 27
2017-09-19 18:00:00 29.5 8 Norte 18 Nordeste 0 -- -- 27
2017-09-19 17:00:00 29.8 5 Noroeste 17 Norte 0 -- -- 27
2017-09-19 16:00:00 28.9 5 Noroeste 19 Nordeste 0 -- -- 29
2017-09-19 15:00:00 27.8 11 Norte 21 Norte 0 -- -- 31
2017-09-19 14:00:00 26.8 8 Norte 23 Norte 0 -- -- 35
2017-09-19 13:00:00 25.2 4 Oeste 14 Oeste 0 -- -- 39
2017-09-19 12:00:00 23.5 4 Este 13 Nordeste 0 -- -- 47
2017-09-19 11:00:00 19.8 6 Noroeste 14 Noroeste 0 -- -- 59
2017-09-19 10:00:00 15.5 5 Noroeste 9 Noroeste 0 -- -- 74
2017-09-19 09:00:00 13.1 2 Norte 5 Nordeste 0 -- -- 82
2017-09-19 08:00:00 12.6 0 Calma 2 Nordeste 0 -- -- 79
2017-09-19 07:00:00 13.7 0 Calma 7 Noroeste 0 -- -- 77
2017-09-19 06:00:00 14.4 0 Calma 6 Noroeste 0 -- -- 73
2017-09-19 05:00:00 14.8 0 Calma 5 Oeste 0 -- -- 73
2017-09-19 04:00:00 15.4 3 Noroeste 6 Noroeste 0 -- -- 71
2017-09-19 03:00:00 16.4 2 Oeste 9 Oeste 0 -- -- 67
2017-09-19 02:00:00 16.9 0 Calma 5 Noroeste 0 -- -- 66
2017-09-19 01:00:00 18.4 4 Noroeste 9 Noroeste 0 -- -- 60
2017-09-19 00:00:00 19.6 5 Noroeste 13 Oeste 0 -- -- 58
2017-09-18 23:00:00 20.8 6 Noroeste 18 Noroeste 0 -- -- 54
2017-09-18 22:00:00 21.9 5 Noroeste 16 Norte 0 -- -- 45
2017-09-18 21:00:00 23.7 10 Noroeste 22 Noroeste 0 -- -- 41
2017-09-18 20:00:00 25.8 8 Noroeste 26 Noroeste 0 -- -- 34
2017-09-18 19:00:00 26.4 13 Noroeste 29 Noroeste 0 -- -- 35
2017-09-18 18:00:00 26.3 11 Noroeste 27 Noroeste 0 -- -- 38
2017-09-18 17:00:00 25.9 14 Norte 29 Noroeste 0 -- -- 41
2017-09-18 16:00:00 24.6 13 Noroeste 30 Noroeste 0 -- -- 45
2017-09-18 15:00:00 23.9 18 Noroeste 31 Noroeste 0 -- -- 52
2017-09-18 14:00:00 24.1 18 Oeste 37 Oeste 0 -- -- 55
2017-09-18 13:00:00 23.4 12 Noroeste 23 Oeste 0 -- -- 55
2017-09-18 12:00:00 20.6 5 Oeste 11 Sudoeste 0 -- -- 54
2017-09-18 11:00:00 17 2 Oeste 5 Sudoeste 0 -- -- 61
2017-09-18 10:00:00 13.4 0 Calma 5 Sudeste 0 -- -- 72
2017-09-18 09:00:00 9.9 0 Calma 5 Nordeste 0 -- -- 78
2017-09-18 08:00:00 9.4 0 Calma 5 Noroeste 0 -- -- 75
2017-09-18 07:00:00 9.4 0 Calma 5 Nordeste 0 -- -- 80
2017-09-18 06:00:00 9.8 0 Calma 3 Oeste 0 -- -- 76
2017-09-18 05:00:00 10.7 3 Sudeste 8 Sudeste 0 -- -- 69
2017-09-18 04:00:00 10.5 2 Sudeste 5 Nordeste 0 -- -- 71
2017-09-18 03:00:00 11.4 0 Calma 4 Sudeste 0 -- -- 67
2017-09-18 02:00:00 12.5 0 Calma 4 Noroeste 0 -- -- 62
2017-09-18 01:00:00 14.9 0 Calma 8 Oeste 0 -- -- 54
2017-09-18 00:00:00 17.5 5 Oeste 11 Noroeste 0 -- -- 47
2017-09-17 23:00:00 18.9 4 Noroeste 15 Oeste 0 -- -- 42
2017-09-17 22:00:00 20.5 6 Noroeste 15 Noroeste 0 -- -- 36
2017-09-17 21:00:00 22.3 7 Oeste 23 Oeste 0 -- -- 30
2017-09-17 20:00:00 24.9 14 Oeste 24 Oeste 0 -- -- 27
2017-09-17 19:00:00 26.7 11 Oeste 27 Oeste 0 -- -- 26
2017-09-17 18:00:00 27.4 15 Oeste 29 Oeste 0 -- -- 24
2017-09-17 17:00:00 27.2 13 Sudoeste 26 Sudoeste 0 -- -- 24
2017-09-17 16:00:00 26.5 13 Sudoeste 23 Sur 0 -- -- 24
2017-09-17 15:00:00 26.4 12 Sudoeste 32 Oeste 0 -- -- 24
2017-09-17 14:00:00 24.6 10 Sudoeste 17 Oeste 0 -- -- 26
2017-09-17 13:00:00 23.2 5 Oeste 13 Oeste 0 -- -- 29
2017-09-17 12:00:00 21.7 4 Sudoeste 10 Sudoeste 0 -- -- 36
2017-09-17 11:00:00 18 3 Noroeste 9 Sudoeste 0 -- -- 44
2017-09-17 10:00:00 13.7 2 Sur 4 Sur 0 -- -- 57
2017-09-17 09:00:00 8.9 0 Calma 5 Noroeste 0 -- -- 67
2017-09-17 08:00:00 8.6 0 Calma 3 Nordeste 0 -- -- 68
2017-09-17 07:00:00 9.8 0 Calma 4 Nordeste 0 -- -- 63
2017-09-17 06:00:00 10.7 0 Calma 4 Noroeste 0 -- -- 61
2017-09-17 05:00:00 11.5 0 Calma 6 Nordeste 0 -- -- 57
2017-09-17 04:00:00 12.1 2 Oeste 6 Noroeste 0 -- -- 57
2017-09-17 03:00:00 12.5 0 Calma 5 Noroeste 0 -- -- 54
2017-09-17 02:00:00 14.1 3 Noroeste 7 Noroeste 0 -- -- 50
2017-09-17 01:00:00 16.3 5 Noroeste 12 Oeste 0 -- -- 45
2017-09-17 00:00:00 16.7 3 Oeste 10 Noroeste 0 -- -- 37
2017-09-16 23:00:00 17.7 0 Calma 18 Oeste 0 -- -- 32
2017-09-16 22:00:00 19.3 5 Nordeste 8 Nordeste 0 -- -- 28
2017-09-16 21:00:00 21.7 4 Norte 13 Norte 0 -- -- 27
2017-09-16 20:00:00 24.4 9 Norte 18 Norte 0 -- -- 24
2017-09-16 19:00:00 25.5 11 Norte 21 Norte 0 -- -- 24
2017-09-16 18:00:00 25.8 12 Norte 25 Norte 0 -- -- 24
2017-09-16 17:00:00 26 8 Oeste 30 Oeste 0 -- -- 24
2017-09-16 16:00:00 25.4 12 Norte 26 Norte 0 -- -- 25
2017-09-16 15:00:00 24.7 10 Norte 23 Norte 0 -- -- 27
2017-09-16 14:00:00 23.7 10 Norte 22 Norte 0 -- -- 31
2017-09-16 13:00:00 22.5 8 Norte 23 Nordeste 0 -- -- 34
2017-09-16 12:00:00 20.7 11 Nordeste 23 Nordeste 0 -- -- 38
2017-09-16 11:00:00 19.1 10 Nordeste 21 Nordeste 0 -- -- 41
2017-09-16 10:00:00 16 6 Norte 33 Norte 0 -- -- 47
2017-09-16 09:00:00 13.6 12 Norte 23 Norte 0 -- -- 52
2017-09-16 08:00:00 12.8 2 Noroeste 12 Noroeste 0 -- -- 53
2017-09-16 07:00:00 13.3 8 Noroeste 15 Noroeste 0 -- -- 53
2017-09-16 06:00:00 13.8 5 Oeste 14 Noroeste 0 -- -- 51
2017-09-16 05:00:00 14.7 4 Oeste 30 Nordeste 0 -- -- 48
2017-09-16 04:00:00 15.5 14 Norte 31 Norte 0 -- -- 47
2017-09-16 03:00:00 16 14 Norte 26 Norte 0 -- -- 47
2017-09-16 02:00:00 16.4 11 Norte 23 Norte 0 -- -- 47
2017-09-16 01:00:00 16.9 12 Norte 26 Norte 0 -- -- 49
2017-09-16 00:00:00 17.6 12 Norte 23 Norte 0 -- -- 47
2017-09-15 23:00:00 18.3 5 Norte 15 Noroeste 0 -- -- 38
2017-09-15 22:00:00 20.2 4 Noroeste 15 Norte 0 -- -- 36
2017-09-15 21:00:00 22.1 9 Norte 20 Norte 0 -- -- 25
2017-09-15 20:00:00 23.8 13 Norte 36 Noroeste 0 -- -- 23
2017-09-15 19:00:00 24.8 17 Norte 32 Norte 0 -- -- 22
2017-09-15 18:00:00 25.3 16 Norte 34 Norte 0 -- -- 23
2017-09-15 17:00:00 25.6 17 Norte 45 Norte 0 -- -- 23
2017-09-15 16:00:00 25.1 14 Norte 38 Noroeste 0 -- -- 24
2017-09-15 15:00:00 24.7 17 Norte 37 Norte 0 -- -- 26
2017-09-15 14:00:00 24.3 15 Noroeste 33 Norte 0 -- -- 29
2017-09-15 13:00:00 23.2 16 Norte 32 Norte 0 -- -- 32
2017-09-15 12:00:00 20.9 14 Norte 28 Norte 0 -- -- 38
2017-09-15 11:00:00 18.7 11 Norte 27 Norte 0 -- -- 44
2017-09-15 10:00:00 16.2 12 Norte 27 Norte 0 -- -- 52
2017-09-15 09:00:00 14.3 10 Norte 16 Norte 0 -- -- 59
2017-09-15 08:00:00 13.4 4 Norte 13 Noroeste 0 -- -- 61
2017-09-15 07:00:00 11.7 4 Noroeste 10 Noroeste 0 -- -- 72
2017-09-15 06:00:00 11.5 0 Calma 5 Sudoeste 0 -- -- 72
2017-09-15 05:00:00 12 0 Calma 4 Nordeste 0 -- -- 67
2017-09-15 04:00:00 13.2 2 Sudoeste 7 Sudoeste 0 -- -- 63
2017-09-15 03:00:00 14.5 4 Oeste 6 Oeste 0 -- -- 56
2017-09-15 02:00:00 17.3 0 Calma 8 Noroeste 0 -- -- 43
2017-09-15 01:00:00 18.5 3 Noroeste 14 Noroeste 0 -- -- 39
2017-09-15 00:00:00 20.1 5 Noroeste 21 Noroeste 0 -- -- 33
2017-09-14 23:00:00 22 9 Noroeste 24 Noroeste 0 -- -- 31
2017-09-14 22:00:00 24.6 14 Noroeste 30 Noroeste 0 -- -- 44
2017-09-14 21:00:00 27 17 Noroeste 32 Noroeste 0 -- -- 47
2017-09-14 20:00:00 29.9 13 Oeste 27 Oeste 0 -- -- 37
2017-09-14 19:00:00 31.6 8 Norte 26 Noroeste 0 -- -- 30
2017-09-14 18:00:00 31.6 13 Norte 25 Noroeste 0 -- -- 29
2017-09-14 17:00:00 31.8 12 Noroeste 34 Noroeste 0 -- -- 30
2017-09-14 16:00:00 31.5 12 Norte 21 Nordeste 0 -- -- 30
2017-09-14 15:00:00 29.2 11 Norte 25 Norte 0 -- -- 30
2017-09-14 14:00:00 27.7 13 Norte 29 Norte 0 -- -- 32
2017-09-14 13:00:00 27.3 10 Norte 27 Norte 0 -- -- 36
2017-09-14 12:00:00 25.6 10 Norte 22 Noroeste 0 -- -- 41
2017-09-14 11:00:00 21.2 3 Noroeste 6 Noroeste 0 -- -- 58
2017-09-14 10:00:00 17.3 3 Oeste 7 Oeste 0 -- -- 75
2017-09-14 09:00:00 13.7 0 Calma 4 Nordeste 0 -- -- 83
2017-09-14 08:00:00 13.6 0 Calma 6 Nordeste 0 -- -- 78
2017-09-14 07:00:00 13.6 0 Calma 4 Oeste 0 -- -- 80
2017-09-14 06:00:00 14.2 3 Sudeste 6 Este 0 -- -- 78
2017-09-14 05:00:00 15.3 0 Calma 4 Sur 0 -- -- 69
2017-09-14 04:00:00 17 3 Sudeste 6 Sudeste 0 -- -- 61
2017-09-14 03:00:00 17.7 0 Calma 2 Sur 0 -- -- 56
2017-09-14 02:00:00 19.6 0 Calma 5 Noroeste 0 -- -- 52
2017-09-14 01:00:00 22.7 3 Noroeste 17 Noroeste 0 -- -- 45
2017-09-14 00:00:00 25.5 11 Noroeste 23 Norte 0 -- -- 41
2017-09-13 23:00:00 26.5 8 Noroeste 22 Noroeste 0 -- -- 39
2017-09-13 22:00:00 25.5 2 Noroeste 5 Noroeste 0 -- -- 34
2017-09-13 21:00:00 29.7 3 Noroeste 18 Oeste 0 -- -- 27
2017-09-13 20:00:00 33 10 Noroeste 26 Oeste 0 -- -- 24
2017-09-13 19:00:00 34.1 12 Oeste 29 Oeste 0 -- -- 23
2017-09-13 18:00:00 34.6 13 Oeste 29 Oeste 0 -- -- 24
2017-09-13 17:00:00 34.2 9 Sur 22 Sudoeste 0 -- -- 25
2017-09-13 16:00:00 33.8 6 Sudoeste 19 Oeste 0 -- -- 26
2017-09-13 15:00:00 32.9 3 Este 15 Noroeste 0 -- -- 26
2017-09-13 14:00:00 31.9 4 Sur 14 Oeste 0 -- -- 30
2017-09-13 13:00:00 30.6 6 Sudeste 17 Sudeste 0 -- -- 32
2017-09-13 12:00:00 28.7 8 Sudeste 15 Sudeste 0 -- -- 35
2017-09-13 11:00:00 26.5 3 Sur 7 Sur 0 -- -- 42
2017-09-13 10:00:00 23 3 Sur 8 Norte 0 -- -- 51
2017-09-13 09:00:00 18.6 0 Calma 9 Norte 0 -- -- 62
2017-09-13 08:00:00 17.4 2 Noroeste 6 Nordeste 0 -- -- 63
2017-09-13 07:00:00 18 3 Sudeste 12 Noroeste 0 -- -- 57
2017-09-13 06:00:00 18.7 3 Noroeste 6 Oeste 0 -- -- 57
2017-09-13 05:00:00 19.4 3 Sur 9 Noroeste 0 -- -- 54
2017-09-13 04:00:00 19.7 0 Calma 9 Norte 0 -- -- 52
2017-09-13 03:00:00 20.1 0 Calma 5 Norte 0 -- -- 49
2017-09-13 02:00:00 20.5 0 Calma 8 Oeste 0 -- -- 48
2017-09-13 01:00:00 22.9 4 Sudoeste 14 Nordeste 0 -- -- 42
2017-09-13 00:00:00 26.1 9 Nordeste 18 Nordeste 0 -- -- 39
2017-09-12 23:00:00 26 6 Nordeste 14 Nordeste 0 -- -- 38
2017-09-12 22:00:00 26.2 6 Nordeste 10 Nordeste 0 -- -- 37
2017-09-12 21:00:00 28.6 6 Norte 20 Norte 0 -- -- 33
2017-09-12 20:00:00 30.7 6 Norte 18 Nordeste 0 -- -- 30
2017-09-12 19:00:00 31.5 8 Norte 24 Norte 0 -- -- 28
2017-09-12 18:00:00 31.8 9 Nordeste 26 Norte 0 -- -- 27
2017-09-12 17:00:00 31.8 12 Norte 22 Norte 0 -- -- 27
2017-09-12 16:00:00 30.8 9 Norte 23 Norte 0 -- -- 28
2017-09-12 15:00:00 29.9 12 Norte 26 Noroeste 0 -- -- 30
2017-09-12 14:00:00 28.9 11 Nordeste 31 Norte 0 -- -- 32
2017-09-12 13:00:00 27.6 16 Norte 36 Norte 0 -- -- 34
2017-09-12 12:00:00 26.1 15 Nordeste 26 Nordeste 0 -- -- 36
2017-09-12 11:00:00 24 13 Norte 22 Norte 0 -- -- 43
2017-09-12 10:00:00 21.3 10 Norte 22 Norte 0 -- -- 51
2017-09-12 09:00:00 18.5 9 Norte 17 Norte 0 -- -- 57
2017-09-12 08:00:00 17.9 7 Noroeste 17 Norte 0 -- -- 57
2017-09-12 07:00:00 18.9 9 Norte 16 Noroeste 0 -- -- 55
2017-09-12 06:00:00 18.9 8 Norte 14 Norte 0 -- -- 54
2017-09-12 05:00:00 19.2 6 Norte 15 Norte 0 -- -- 53
2017-09-12 04:00:00 20.2 10 Norte 16 Norte 0 -- -- 51
2017-09-12 03:00:00 20.7 6 Oeste 14 Oeste 0 -- -- 48
2017-09-12 02:00:00 21.9 6 Noroeste 17 Norte 0 -- -- 46
2017-09-12 01:00:00 23.2 6 Norte 25 Norte 0 -- -- 44
2017-09-12 00:00:00 24.3 14 Norte 26 Norte 0 -- -- 42
2017-09-11 23:00:00 25.7 11 Norte 20 Norte 0 -- -- 37
2017-09-11 22:00:00 27.3 11 Norte 22 Norte 0 -- -- 34
2017-09-11 21:00:00 29.4 12 Norte 33 Norte 0 -- -- 31
2017-09-11 20:00:00 31.8 19 Norte 37 Norte 0 -- -- 26
2017-09-11 19:00:00 33.5 16 Norte 32 Norte 0 -- -- 24
2017-09-11 18:00:00 34 14 Norte 31 Norte 0 -- -- 26
2017-09-11 17:00:00 34.1 14 Noroeste 29 Norte 0 -- -- 23
2017-09-11 16:00:00 33.7 8 Norte 25 Noroeste 0 -- -- 27
2017-09-11 15:00:00 32.3 8 Nordeste 23 Norte 0 -- -- 28
2017-09-11 14:00:00 30.9 9 Nordeste 20 Norte 0 -- -- 33
2017-09-11 13:00:00 29.2 8 Norte 18 Norte 0 -- -- 37
2017-09-11 12:00:00 27.3 3 Sudoeste 13 Oeste 0 -- -- 44
2017-09-11 11:00:00 24.2 4 Noroeste 11 Noroeste 0 -- -- 50
2017-09-11 10:00:00 20.6 4 Noroeste 6 Noroeste 0 -- -- 57
2017-09-11 09:00:00 17.2 0 Calma 4 Oeste 0 -- -- 64
2017-09-11 08:00:00 16.9 3 Oeste 4 Oeste 0 -- -- 61
2017-09-11 07:00:00 17.7 2 Noroeste 7 Noroeste 0 -- -- 58
2017-09-11 06:00:00 18.2 3 Noroeste 10 Norte 0 -- -- 55
2017-09-11 05:00:00 19.8 6 Noroeste 14 Norte 0 -- -- 53
2017-09-11 04:00:00 20.1 8 Norte 15 Noroeste 0 -- -- 51
2017-09-11 03:00:00 20.2 8 Norte 12 Norte 0 -- -- 49
2017-09-11 02:00:00 20.6 5 Noroeste 15 Norte 0 -- -- 46
2017-09-11 01:00:00 20 5 Norte 12 Norte 0 -- -- 46
2017-09-11 00:00:00 19.9 4 Oeste 11 Norte 0 -- -- 33
2017-09-10 23:00:00 21.3 9 Norte 17 Norte 0 -- -- 34
2017-09-10 22:00:00 22.1 4 Noroeste 6 Noroeste 0 -- -- 28
2017-09-10 21:00:00 25.3 5 Norte 11 Norte 0 -- -- 25
2017-09-10 20:00:00 27.9 10 Norte 23 Norte 0 -- -- 22
2017-09-10 19:00:00 28.2 11 Norte 23 Norte 0 -- -- 21
2017-09-10 18:00:00 28.2 8 Noroeste 26 Norte 0 -- -- 22
2017-09-10 17:00:00 27.9 13 Noroeste 26 Norte 0 -- -- 24
2017-09-10 16:00:00 26.9 11 Nordeste 24 Norte 0 -- -- 25
2017-09-10 15:00:00 25.8 12 Norte 29 Nordeste 0 -- -- 27
2017-09-10 14:00:00 24.2 12 Norte 27 Norte 0 -- -- 30
2017-09-10 13:00:00 22.7 9 Norte 24 Nordeste 0 -- -- 36
2017-09-10 12:00:00 20.9 15 Nordeste 29 Norte 0 -- -- 40
2017-09-10 11:00:00 18.8 12 Norte 24 Norte 0 -- -- 46
2017-09-10 10:00:00 16.5 10 Norte 20 Norte 0 -- -- 54
2017-09-10 09:00:00 14.1 5 Oeste 23 Norte 0 -- -- 64
2017-09-10 08:00:00 13.9 7 Norte 20 Norte 0 -- -- 66
2017-09-10 07:00:00 14 11 Norte 22 Norte 0 -- -- 68
2017-09-10 06:00:00 14.3 8 Noroeste 18 Noroeste 0 -- -- 68
2017-09-10 05:00:00 15.1 5 Noroeste 24 Noroeste 0 -- -- 67
2017-09-10 04:00:00 15 12 Noroeste 28 Noroeste 0 -- -- 66
2017-09-10 03:00:00 15.5 12 Norte 25 Norte 0 -- -- 64
2017-09-10 02:00:00 16.1 12 Norte 28 Norte 0 -- -- 61
2017-09-10 01:00:00 17 11 Norte 34 Norte 0 -- -- 56
2017-09-10 00:00:00 17.7 21 Norte 43 Norte 0 -- -- 55
2017-09-09 23:00:00 18.8 17 Norte 37 Norte 0 -- -- 50
2017-09-09 22:00:00 19.9 17 Norte 35 Noroeste 0 -- -- 47
2017-09-09 21:00:00 21.1 15 Noroeste 39 Noroeste 0 -- -- 45
2017-09-09 20:00:00 22.9 17 Noroeste 39 Noroeste 0 -- -- 41
2017-09-09 19:00:00 24.6 19 Noroeste 36 Norte 0 -- -- 36
2017-09-09 18:00:00 26.3 17 Noroeste 45 Noroeste 0 -- -- 33
2017-09-09 17:00:00 26.5 22 Norte 45 Noroeste 0 -- -- 34
2017-09-09 16:00:00 27 19 Noroeste 41 Noroeste 0 -- -- 34
2017-09-09 15:00:00 26.3 19 Norte 40 Norte 0 -- -- 34
2017-09-09 14:00:00 24.9 16 Norte 35 Noroeste 0 -- -- 39
2017-09-09 13:00:00 23.8 15 Noroeste 30 Noroeste 0 -- -- 47
2017-09-09 12:00:00 22.6 13 Norte 30 Noroeste 0 -- -- 53
2017-09-09 11:00:00 20.9 14 Norte 31 Norte 0 -- -- 59
2017-09-09 10:00:00 19.4 11 Noroeste 21 Norte 0 -- -- 64
2017-09-09 09:00:00 18.1 9 Noroeste 20 Norte 0 -- -- 68
2017-09-09 08:00:00 16.5 10 Noroeste 22 Noroeste 0 -- -- 74
2017-09-09 07:00:00 13.5 2 Norte 6 Nordeste 0 -- -- 73
2017-09-09 06:00:00 13 2 Nordeste 5 Nordeste 0 -- -- 72
2017-09-09 05:00:00 13.3 0 Calma 4 Oeste 0 -- -- 68
2017-09-09 04:00:00 13.8 0 Calma 4 Oeste 0 -- -- 62
2017-09-09 03:00:00 15 0 Calma 10 Sudeste 0 -- -- 54
2017-09-09 02:00:00 15.4 2 Noroeste 9 Oeste 0 -- -- 52
2017-09-09 01:00:00 17.3 0 Calma 11 Oeste 0 -- -- 44
2017-09-09 00:00:00 20.1 4 Noroeste 16 Noroeste 0 -- -- 36
2017-09-08 23:00:00 22.1 12 Noroeste 20 Oeste 0 -- -- 33
2017-09-08 22:00:00 25.4 4 Oeste 18 Noroeste 0 -- -- 31
2017-09-08 21:00:00 27.6 9 Noroeste 31 Noroeste 0 -- -- 28
2017-09-08 20:00:00 30.7 18 Noroeste 36 Noroeste 0 -- -- 18
2017-09-08 19:00:00 33 17 Oeste 32 Oeste 0 -- -- 18
2017-09-08 18:00:00 34.2 18 Oeste 34 Oeste 0 -- -- 12
2017-09-08 17:00:00 34.8 19 Oeste 31 Oeste 0 -- -- 14
2017-09-08 16:00:00 34.9 15 Oeste 32 Noroeste 0 -- -- 13
2017-09-08 15:00:00 34.5 15 Oeste 32 Oeste 0 -- -- 15
2017-09-08 14:00:00 33.3 8 Oeste 20 Oeste 0 -- -- 17
2017-09-08 13:00:00 31.7 6 Oeste 14 Sudoeste 0 -- -- 17
2017-09-08 12:00:00 29 5 Noroeste 11 Oeste 0 -- -- 21
2017-09-08 11:00:00 24.7 0 Calma -- -- 0 -- -- 26
2017-09-08 10:00:00 19.6 0 Calma 2 Sur 0 -- -- 31
2017-09-08 09:00:00 14.9 0 Calma 4 Sudeste 0 -- -- 37
2017-09-08 08:00:00 13.9 0 Calma 6 Nordeste 0 -- -- 34
2017-09-08 07:00:00 14.5 3 Sudeste 4 Sur 0 -- -- 34
2017-09-08 06:00:00 15.5 0 Calma 5 Sudeste 0 -- -- 32
2017-09-08 05:00:00 16.6 0 Calma 7 Sudeste 0 -- -- 29
2017-09-08 04:00:00 16.9 0 Calma 5 Oeste 0 -- -- 28
2017-09-08 03:00:00 18.1 0 Calma 5 Norte 0 -- -- 26
2017-09-08 02:00:00 19 0 Calma 7 Sudoeste 0 -- -- 25
2017-09-08 01:00:00 22.5 2 Sudoeste 16 Norte 0 -- -- 21
2017-09-08 00:00:00 24.4 7 Nordeste 18 Norte 0 -- -- 21
2017-09-07 23:00:00 23 2 Oeste 10 Noroeste 0 -- -- 19
2017-09-07 22:00:00 26.3 4 Noroeste 10 Nordeste 0 -- -- 16
2017-09-07 21:00:00 30.4 6 Nordeste 17 Norte 0 -- -- 14
2017-09-07 20:00:00 33.5 10 Nordeste 22 Nordeste 0 -- -- 12
2017-09-07 19:00:00 34.7 11 Norte 26 Norte 0 -- -- 11
2017-09-07 18:00:00 35.3 10 Norte 29 Norte 0 -- -- 13
2017-09-07 17:00:00 35 11 Nordeste 26 Nordeste 0 -- -- 16
2017-09-07 16:00:00 34.7 10 Norte 36 Noroeste 0 -- -- 22
2017-09-07 15:00:00 34.6 12 Nordeste 29 Norte 0 -- -- 24
2017-09-07 14:00:00 33.4 14 Nordeste 32 Norte 0 -- -- 26
2017-09-07 13:00:00 31.8 14 Nordeste 30 Nordeste 0 -- -- 27
2017-09-07 12:00:00 30 16 Nordeste 30 Nordeste 0 -- -- 30
2017-09-07 11:00:00 27.8 14 Nordeste 28 Norte 0 -- -- 33
2017-09-07 10:00:00 24.8 6 Noroeste 15 Noroeste 0 -- -- 37
2017-09-07 09:00:00 22.5 9 Oeste 21 Norte 0 -- -- 42
2017-09-07 08:00:00 23.4 12 Norte 32 Norte 0 -- -- 39
2017-09-07 07:00:00 24.4 18 Norte 32 Nordeste 0 -- -- 38
2017-09-07 06:00:00 25.2 16 Norte 33 Norte 0 -- -- 39
2017-09-07 05:00:00 25.3 18 Nordeste 28 Norte 0 -- -- 39
2017-09-07 04:00:00 24.9 5 Oeste 13 Noroeste 0 -- -- 44
2017-09-07 03:00:00 25 8 Noroeste 16 Norte 0 -- -- 43
2017-09-07 02:00:00 24.6 3 Noroeste 8 Oeste 0 -- -- 44
2017-09-07 01:00:00 25.7 3 Sur 8 Oeste 0 -- -- 42
2017-09-07 00:00:00 26.6 5 Oeste 8 Oeste 0 -- -- 41
2017-09-06 23:00:00 28.7 4 Noroeste 11 Noroeste 0 -- -- 33
2017-09-06 22:00:00 30.9 4 Noroeste 14 Norte 0 -- -- 27
2017-09-06 21:00:00 33.3 6 Norte 20 Nordeste 0 -- -- 28
2017-09-06 20:00:00 36.3 5 Oeste 17 Oeste 0 -- -- 27
2017-09-06 19:00:00 36.7 6 Noroeste 19 Nordeste 0 -- -- 26
2017-09-06 18:00:00 37.1 7 Este 19 Norte 0 -- -- 25
2017-09-06 17:00:00 37.1 9 Oeste 19 Noroeste 0 -- -- 25
2017-09-06 16:00:00 36.5 9 Sudoeste 19 Sudoeste 0 -- -- 27
2017-09-06 15:00:00 35.8 9 Sur 22 Sur 0 -- -- 27
2017-09-06 14:00:00 34.9 5 Este 15 Sudeste 0 -- -- 28
2017-09-06 13:00:00 33.6 6 Sudoeste 16 Norte 0 -- -- 30
2017-09-06 12:00:00 31.3 6 Norte 12 Nordeste 0 -- -- 33
2017-09-06 11:00:00 26.6 3 Sur 7 Noroeste 0 -- -- 48
2017-09-06 10:00:00 21.4 4 Noroeste 8 Noroeste 0 -- -- 62
2017-09-06 09:00:00 18.2 0 Calma 3 Nordeste 0 -- -- 72
2017-09-06 08:00:00 17.7 0 Calma 3 Este 0 -- -- 71
2017-09-06 07:00:00 17.9 0 Calma 3 Nordeste 0 -- -- 71
2017-09-06 06:00:00 18.7 0 Calma 2 Este 0 -- -- 68
2017-09-06 05:00:00 19.7 0 Calma 4 Sur 0 -- -- 64
2017-09-06 04:00:00 20.8 2 Sur 5 Sudeste 0 -- -- 60
2017-09-06 03:00:00 22.3 0 Calma 0 Calma 0 -- -- 56
2017-09-06 02:00:00 23.1 2 Noroeste 5 Norte 0 -- -- 55
2017-09-06 01:00:00 24.7 0 Calma 9 Noroeste 0 -- -- 50
2017-09-06 00:00:00 26.1 4 Noroeste 7 Noroeste 0 -- -- 48
2017-09-05 23:00:00 27.6 5 Noroeste 9 Noroeste 0 -- -- 45
2017-09-05 22:00:00 29.6 2 Noroeste 10 Oeste 0 -- -- 41
2017-09-05 21:00:00 31.6 6 Oeste 21 Oeste 0 -- -- 38
2017-09-05 20:00:00 34 9 Oeste 20 Oeste 0 -- -- 34
2017-09-05 19:00:00 34.7 8 Sudoeste 21 Oeste 0 -- -- 30
2017-09-05 18:00:00 34.5 6 Oeste 17 Sudoeste 0 -- -- 31
2017-09-05 17:00:00 34 10 Oeste 25 Sur 0 -- -- 32
2017-09-05 16:00:00 32.9 6 Noroeste 23 Sudoeste 0 -- -- 35
2017-09-05 15:00:00 31.6 10 Sudoeste 18 Sur 0 -- -- 39
2017-09-05 14:00:00 29.6 4 Sudoeste 13 Sudoeste 0 -- -- 46
2017-09-05 13:00:00 27.3 7 Sur 15 Sur 0 -- -- 53
2017-09-05 12:00:00 25 7 Oeste 13 Sudeste 0 -- -- 61
2017-09-05 11:00:00 22.8 5 Oeste 10 Oeste 0 -- -- 67
2017-09-05 10:00:00 20.1 4 Sur 7 Sur 0 -- -- 76
2017-09-05 09:00:00 17.4 0 Calma 5 Oeste 0 -- -- 83
2017-09-05 08:00:00 16.5 3 Sudeste 6 Sudeste 0 -- -- 80
2017-09-05 07:00:00 16.5 0 Calma -- -- 0 -- -- 80
2017-09-05 06:00:00 17.1 0 Calma 3 Sur 0 -- -- 77
2017-09-05 05:00:00 17.9 2 Este 5 Este 0 -- -- 76
2017-09-05 04:00:00 18.5 0 Calma 4 Sudeste 0 -- -- 73
2017-09-05 03:00:00 19.5 0 Calma 4 Sudoeste 0 -- -- 71
2017-09-05 02:00:00 21.1 0 Calma 8 Sudoeste 0 -- -- 66
2017-09-05 01:00:00 22.2 0 Calma 10 Oeste 0 -- -- 60
2017-09-05 00:00:00 23.8 3 Oeste 14 Noroeste 0 -- -- 57
2017-09-04 23:00:00 25 4 Noroeste 16 Noroeste 0 -- -- 53
2017-09-04 22:00:00 26.5 8 Noroeste 18 Oeste 0 -- -- 48
2017-09-04 21:00:00 28.5 8 Oeste 23 Noroeste 0 -- -- 44
2017-09-04 20:00:00 30.7 13 Noroeste 25 Oeste 0 -- -- 39
2017-09-04 19:00:00 31.7 10 Noroeste 30 Noroeste 0 -- -- 39
2017-09-04 18:00:00 31.8 17 Oeste 31 Oeste 0 -- -- 39
2017-09-04 17:00:00 32 14 Noroeste 35 Sudoeste 0 -- -- 40
2017-09-04 16:00:00 31.1 15 Oeste 33 Oeste 0 -- -- 39
2017-09-04 15:00:00 30.3 11 Noroeste 27 Noroeste 0 -- -- 43
2017-09-04 14:00:00 28.8 8 Noroeste 21 Noroeste 0 -- -- 44
2017-09-04 13:00:00 27.3 11 Noroeste 22 Oeste 0 -- -- 48
2017-09-04 12:00:00 25.7 10 Noroeste 28 Noroeste 0 -- -- 54
2017-09-04 11:00:00 23.3 9 Noroeste 19 Noroeste 0 -- -- 62
2017-09-04 10:00:00 20.6 2 Sudoeste 6 Sudoeste 0 -- -- 65
2017-09-04 09:00:00 17.1 3 Sudeste 6 Este 0 -- -- 71
2017-09-04 08:00:00 16.3 4 Sudeste 5 Sudeste 0 -- -- 67
2017-09-04 07:00:00 17.1 0 Calma 6 Sudeste 0 -- -- 65
2017-09-04 06:00:00 19.4 2 Sudoeste 17 Norte 0 -- -- 58
2017-09-04 05:00:00 20.1 5 Noroeste 11 Norte 0 -- -- 59
2017-09-04 04:00:00 20.5 8 Norte 17 Noroeste 0 -- -- 58
2017-09-04 03:00:00 21.1 3 Norte 15 Noroeste 0 -- -- 52
2017-09-04 02:00:00 22.2 11 Noroeste 24 Noroeste 0 -- -- 51
2017-09-04 01:00:00 22.2 3 Noroeste 15 Noroeste 0 -- -- 37
2017-09-04 00:00:00 22.9 6 Noroeste 14 Noroeste 0 -- -- 34
2017-09-03 23:00:00 24.6 6 Noroeste 16 Noroeste 0 -- -- 29
2017-09-03 22:00:00 26.7 6 Oeste 15 Noroeste 0 -- -- 26
2017-09-03 21:00:00 28.9 10 Oeste 27 Oeste 0 -- -- 19
2017-09-03 20:00:00 31.5 14 Oeste 28 Oeste 0 -- -- 13
2017-09-03 19:00:00 32.8 15 Noroeste 30 Noroeste 0 -- -- 13
2017-09-03 18:00:00 33.3 15 Noroeste 34 Sudoeste 0 -- -- 18
2017-09-03 17:00:00 33.9 16 Oeste 35 Oeste 0 -- -- 21
2017-09-03 16:00:00 33.3 15 Oeste 33 Oeste 0 -- -- 22
2017-09-03 15:00:00 33.2 16 Oeste 34 Oeste 0 -- -- 22
2017-09-03 14:00:00 32.3 15 Sudoeste 27 Sudoeste 0 -- -- 23
2017-09-03 13:00:00 30.8 9 Sudoeste 16 Sur 0 -- -- 27
2017-09-03 12:00:00 28.3 9 Sudoeste 17 Sudoeste 0 -- -- 28
2017-09-03 11:00:00 25.3 4 Sudeste 9 Sudeste 0 -- -- 34
2017-09-03 10:00:00 19.9 0 Calma 2 Sur 0 -- -- 46
2017-09-03 09:00:00 15.9 0 Calma 6 Noroeste 0 -- -- 50
2017-09-03 08:00:00 15.3 2 Este 4 Sudeste 0 -- -- 52
2017-09-03 07:00:00 15.9 0 Calma 4 Oeste 0 -- -- 47
2017-09-03 06:00:00 16.6 0 Calma 3 Este 0 -- -- 45
2017-09-03 05:00:00 17.3 0 Calma 4 Nordeste 0 -- -- 45
2017-09-03 04:00:00 18.1 3 Nordeste 6 Nordeste 0 -- -- 43
2017-09-03 03:00:00 19.2 0 Calma 4 Nordeste 0 -- -- 40
2017-09-03 02:00:00 20.9 3 Sur 4 Este 0 -- -- 36
2017-09-03 01:00:00 23.1 0 Calma 11 Oeste 0 -- -- 34
2017-09-03 00:00:00 26.4 0 Calma 13 Nordeste 0 -- -- 29
2017-09-02 23:00:00 27.6 4 Este 16 Nordeste 0 -- -- 28
2017-09-02 22:00:00 28.9 10 Nordeste 16 Nordeste 0 -- -- 27
2017-09-02 21:00:00 30.8 5 Nordeste 11 Norte 0 -- -- 27
2017-09-02 20:00:00 33.1 3 Sur 22 Sur 0 -- -- 25
2017-09-02 19:00:00 33.7 8 Sudeste 17 Sudeste 0 -- -- 24
2017-09-02 18:00:00 33.8 8 Este 19 Este 0 -- -- 25
2017-09-02 17:00:00 33.7 7 Norte 19 Sudeste 0 -- -- 25
2017-09-02 16:00:00 33.2 7 Nordeste 24 Este 0 -- -- 27
2017-09-02 15:00:00 32 7 Este 26 Este 0 -- -- 27
2017-09-02 14:00:00 31 10 Este 24 Nordeste 0 -- -- 30
2017-09-02 13:00:00 29.5 13 Este 26 Este 0 -- -- 30
2017-09-02 12:00:00 27.4 13 Este 26 Sudeste 0 -- -- 33
2017-09-02 11:00:00 25.5 12 Nordeste 23 Este 0 -- -- 35
2017-09-02 10:00:00 23.5 8 Nordeste 21 Nordeste 0 -- -- 39
2017-09-02 09:00:00 21.4 9 Nordeste 22 Nordeste 0 -- -- 43
2017-09-02 08:00:00 20.8 6 Nordeste 17 Nordeste 0 -- -- 43
2017-09-02 07:00:00 20.9 8 Nordeste 22 Nordeste 0 -- -- 43
2017-09-02 06:00:00 21.2 2 Este 22 Norte 0 -- -- 40
2017-09-02 05:00:00 21.4 15 Norte 27 Norte 0 -- -- 40
2017-09-02 04:00:00 21.7 8 Norte 23 Nordeste 0 -- -- 39
2017-09-02 03:00:00 22.8 13 Norte 35 Nordeste 0 -- -- 38
2017-09-02 02:00:00 23.9 17 Nordeste 37 Nordeste 0 -- -- 36
2017-09-02 01:00:00 25.2 24 Nordeste 43 Nordeste 0 -- -- 33
2017-09-02 00:00:00 26.2 16 Nordeste 32 Nordeste 0 -- -- 30
2017-09-01 23:00:00 27.8 19 Nordeste 36 Nordeste 0 -- -- 27
2017-09-01 22:00:00 28.5 10 Nordeste 20 Nordeste 0 -- -- 24
2017-09-01 21:00:00 30.2 10 Nordeste 22 Nordeste 0 -- -- 24
2017-09-01 20:00:00 32 11 Nordeste 23 Nordeste 0 -- -- 24
2017-09-01 19:00:00 33.1 10 Norte 22 Este 0 -- -- 24
2017-09-01 18:00:00 33.3 10 Este 22 Nordeste 0 -- -- 24
2017-09-01 17:00:00 33.7 12 Norte 23 Norte 0 -- -- 24
2017-09-01 16:00:00 33 12 Norte 25 Norte 0 -- -- 25
2017-09-01 15:00:00 32.6 13 Nordeste 25 Este 0 -- -- 28
2017-09-01 14:00:00 32 9 Norte 28 Nordeste 0 -- -- 31
2017-09-01 13:00:00 30.8 12 Nordeste 26 Nordeste 0 -- -- 33
2017-09-01 12:00:00 28.9 14 Nordeste 23 Este 0 -- -- 40
2017-09-01 11:00:00 26.7 12 Nordeste 23 Nordeste 0 -- -- 43
2017-09-01 10:00:00 24 9 Norte 15 Norte 0 -- -- 47
2017-09-01 09:00:00 21.8 3 Noroeste 14 Norte 0 -- -- 52
2017-09-01 08:00:00 20.7 4 Norte 15 Nordeste 0 -- -- 53
2017-09-01 07:00:00 21.2 0 Calma 15 Noroeste 0 -- -- 53
2017-09-01 06:00:00 21.5 2 Noroeste 18 Norte 0 -- -- 54
2017-09-01 05:00:00 22.3 6 Norte 17 Norte 0 -- -- 53
2017-09-01 04:00:00 21.9 5 Norte 17 Noroeste 0 -- -- 56
2017-09-01 03:00:00 22.3 8 Norte 15 Norte 0 -- -- 55
2017-09-01 02:00:00 21.4 2 Noroeste 8 Norte 0 -- -- 57
2017-09-01 01:00:00 22 0 Calma 5 Noroeste 0 -- -- 48
2017-09-01 00:00:00 22.8 3 Sur 9 Noroeste 0 -- -- 45
2017-08-31 23:00:00 23.8 4 Nordeste 8 Nordeste 0 -- -- 45
2017-08-31 22:00:00 25.4 6 Nordeste 8 Nordeste 0 -- -- 41
2017-08-31 21:00:00 29.2 0 Calma 13 Sur 0 -- -- 34
2017-08-31 20:00:00 31.1 5 Sudoeste 15 Sur 0 -- -- 32
2017-08-31 19:00:00 31.5 9 Sur 18 Sudoeste 0 -- -- 31
2017-08-31 18:00:00 31.8 6 Noroeste 18 Este 0 -- -- 32
2017-08-31 17:00:00 31.3 12 Sur 22 Oeste 0 -- -- 32
2017-08-31 16:00:00 30.7 7 Oeste 20 Noroeste 0 -- -- 35
2017-08-31 15:00:00 29.5 7 Sudoeste 25 Sudoeste 0 -- -- 38
2017-08-31 14:00:00 28.3 8 Sudoeste 17 Sudoeste 0 -- -- 42
2017-08-31 13:00:00 27.1 5 Este 14 Sudeste 0 -- -- 48
2017-08-31 12:00:00 25 6 Sudoeste 14 Sudoeste 0 -- -- 57
2017-08-31 11:00:00 22.3 4 Noroeste 8 Oeste 0 -- -- 67
2017-08-31 10:00:00 19 0 Calma -- -- 0 -- -- 77
2017-08-31 09:00:00 16.5 0 Calma 2 Nordeste 0 -- -- 82
2017-08-31 08:00:00 15.6 2 Sudeste 5 Nordeste 0 -- -- 80
2017-08-31 07:00:00 15.7 0 Calma 4 Nordeste 0 -- -- 80
2017-08-31 06:00:00 16.7 0 Calma 4 Norte 0 -- -- 76
2017-08-31 05:00:00 17.5 0 Calma 4 Noroeste 0 -- -- 75
2017-08-31 04:00:00 18.2 3 Norte 6 Noroeste 0 -- -- 71
2017-08-31 03:00:00 19.1 3 Noroeste 9 Noroeste 0 -- -- 68
2017-08-31 02:00:00 19.7 2 Sudeste 6 Noroeste 0 -- -- 65
2017-08-31 01:00:00 21 4 Noroeste 8 Noroeste 0 -- -- 62
2017-08-31 00:00:00 22.5 3 Oeste 12 Norte 0 -- -- 57
2017-08-30 23:00:00 23.7 4 Noroeste 17 Norte 0 -- -- 54
2017-08-30 22:00:00 25 9 Norte 17 Noroeste 0 -- -- 50
2017-08-30 21:00:00 26.6 9 Oeste 23 Oeste 0 -- -- 43
2017-08-30 20:00:00 28.2 12 Oeste 22 Oeste 0 -- -- 39
2017-08-30 19:00:00 28 10 Oeste 27 Sudoeste 0 -- -- 41
2017-08-30 18:00:00 28.5 9 Sudoeste 27 Oeste 0 -- -- 42
2017-08-30 17:00:00 27.8 10 Sudoeste 24 Sur 0 -- -- 43
2017-08-30 16:00:00 27.2 10 Sudoeste 26 Sudeste 0 -- -- 45
2017-08-30 15:00:00 27 11 Sudoeste 22 Sur 0 -- -- 46
2017-08-30 14:00:00 25.4 10 Sudeste 23 Sudoeste 0 -- -- 51
2017-08-30 13:00:00 23.6 8 Sur 15 Sur 0 -- -- 57
2017-08-30 12:00:00 21.8 6 Oeste 15 Oeste 0 -- -- 69
2017-08-30 11:00:00 20.2 4 Sur 10 Sur 0 -- -- 77
2017-08-30 10:00:00 17 0 Calma 6 Sudeste 0 -- -- 86
2017-08-30 09:00:00 14.4 2 Sudeste 7 Noroeste 0 -- -- 85
2017-08-30 08:00:00 13.7 4 Noroeste 7 Noroeste 0 -- -- 85
2017-08-30 07:00:00 14.6 0 Calma 8 Sudeste 0 -- -- 81
2017-08-30 06:00:00 14.4 4 Sudeste 8 Sudeste 0 -- -- 82
2017-08-30 05:00:00 15.4 0 Calma 8 Noroeste 0 -- -- 80
2017-08-30 04:00:00 16.5 0 Calma 5 Nordeste 0 -- -- 79
2017-08-30 03:00:00 17.4 2 Norte 10 Sudeste 0 -- -- 80
2017-08-30 02:00:00 17.3 3 Sudeste 11 Este 0 -- -- 80
2017-08-30 01:00:00 17 3 Este 5 Sudeste 0 -- -- 77
2017-08-30 00:00:00 17.3 3 Nordeste 4 Nordeste 0 -- -- 75
2017-08-29 23:00:00 18.3 0 Calma 4 Este 0 -- -- 72
2017-08-29 22:00:00 19.4 3 Noroeste 10 Nordeste 0 -- -- 66
2017-08-29 21:00:00 19.6 3 Sur 21 Sur 0 -- -- 62
2017-08-29 20:00:00 19.7 15 Sudeste 40 Sudeste 0 -- -- 65
2017-08-29 19:00:00 23.1 14 Este 31 Sudeste 0 -- -- 58
2017-08-29 18:00:00 25.9 15 Oeste 32 Noroeste 0 -- -- 44
2017-08-29 17:00:00 26 9 Noroeste 16 Oeste 0 -- -- 44
2017-08-29 16:00:00 24.9 2 Oeste 16 Sur 0 -- -- 47
2017-08-29 15:00:00 24.7 7 Sudoeste 15 Sur 0 -- -- 49
2017-08-29 14:00:00 24.3 9 Sudoeste 16 Sudoeste 0 -- -- 52
2017-08-29 13:00:00 23.3 5 Sudeste 12 Sudeste 0 -- -- 59
2017-08-29 12:00:00 21.3 4 Este 11 Este 0 -- -- 68
2017-08-29 11:00:00 20.5 3 Norte 9 Nordeste 0 -- -- 77
2017-08-29 10:00:00 19.4 3 Noroeste 6 Noroeste 0 -- -- 83
2017-08-29 09:00:00 18.2 0 Calma 5 Norte 0 -- -- 84
2017-08-29 08:00:00 17.6 0 Calma 0 Calma 0.2 -- -- 85
2017-08-29 07:00:00 17.9 0 Calma 3 Nordeste 0 -- -- 83
2017-08-29 06:00:00 18.9 3 Sudeste 6 Sudoeste 0 -- -- 81
2017-08-29 05:00:00 19.3 6 Oeste 10 Oeste 0 -- -- 78
2017-08-29 04:00:00 20.2 4 Este 8 Este 1.4 -- -- 80
2017-08-29 03:00:00 20.5 3 Sur 10 Sudoeste 0.4 -- -- 77
2017-08-29 02:00:00 20.8 7 Sudoeste 13 Sur 0 -- -- 78
2017-08-29 01:00:00 21 6 Sudeste 15 Sudeste 0.2 -- -- 77
2017-08-29 00:00:00 20.9 0 Calma 15 Oeste 0 -- -- 73
2017-08-28 23:00:00 21.3 14 Oeste 28 Oeste 0 -- -- 69
2017-08-28 22:00:00 22.5 6 Noroeste 20 Noroeste 0 -- -- 59
2017-08-28 21:00:00 23.5 10 Oeste 22 Oeste 0 -- -- 54
2017-08-28 20:00:00 24.6 9 Noroeste 26 Noroeste 0 -- -- 48
2017-08-28 19:00:00 26.8 16 Noroeste 35 Noroeste 0 -- -- 44
2017-08-28 18:00:00 28.2 14 Sudoeste 31 Sur 0 -- -- 36
2017-08-28 17:00:00 27.2 14 Sur 30 Sudoeste 0 -- -- 37
2017-08-28 16:00:00 26.9 15 Sudoeste 28 Sudoeste 0 -- -- 38
2017-08-28 15:00:00 26 12 Sudoeste 27 Sudoeste 0 -- -- 45
2017-08-28 14:00:00 25.3 12 Sur 28 Sudoeste 0 -- -- 48
2017-08-28 13:00:00 24.5 9 Sur 19 Sudoeste 0 -- -- 53
2017-08-28 12:00:00 22.3 10 Sur 18 Sudoeste 0 -- -- 62
2017-08-28 11:00:00 21 10 Sur 17 Sur 0 -- -- 70
2017-08-28 10:00:00 19.5 2 Sudoeste 11 Sudoeste 0 -- -- 76
2017-08-28 09:00:00 18.3 5 Oeste 12 Oeste 0 -- -- 76
2017-08-28 08:00:00 18.6 4 Oeste 10 Oeste 0 -- -- 73
2017-08-28 07:00:00 18.5 3 Sudoeste 9 Sudoeste 0 -- -- 72
2017-08-28 06:00:00 18.5 0 Calma 5 Sudoeste 0 -- -- 69
2017-08-28 05:00:00 18.8 3 Sudoeste 11 Sudoeste 0 -- -- 68
2017-08-28 04:00:00 19.8 6 Oeste 15 Sudoeste 0 -- -- 65
2017-08-28 03:00:00 20.5 3 Oeste 9 Oeste 0 -- -- 64
2017-08-28 02:00:00 20.6 0 Calma 13 Oeste 0 -- -- 64
2017-08-28 01:00:00 21.7 6 Oeste 12 Oeste 0 -- -- 61
2017-08-28 00:00:00 22.6 6 Noroeste 15 Noroeste 0 -- -- 57
2017-08-27 23:00:00 23.9 5 Noroeste 20 Noroeste 0 -- -- 53
2017-08-27 22:00:00 25.7 13 Noroeste 26 Noroeste 0 -- -- 47
2017-08-27 21:00:00 27.4 9 Oeste 27 Oeste 0 -- -- 36
2017-08-27 20:00:00 29.6 12 Oeste 28 Oeste 0 -- -- 33
2017-08-27 19:00:00 30.4 14 Oeste 34 Oeste 0 -- -- 33
2017-08-27 18:00:00 30.8 16 Sudoeste 36 Sudoeste 0 -- -- 32
2017-08-27 17:00:00 30.9 19 Sudoeste 40 Oeste 0 -- -- 31
2017-08-27 16:00:00 30.7 20 Sudoeste 39 Sudoeste 0 -- -- 32
2017-08-27 15:00:00 30.1 13 Sudoeste 38 Sur 0 -- -- 37
2017-08-27 14:00:00 28.3 14 Sudoeste 28 Sudoeste 0 -- -- 41
2017-08-27 13:00:00 27.1 15 Sudoeste 26 Noroeste 0 -- -- 43
2017-08-27 12:00:00 26 12 Sudoeste 22 Sudoeste 0 -- -- 46
2017-08-27 11:00:00 23.6 2 Nordeste 11 Oeste 0 -- -- 59
2017-08-27 10:00:00 21.8 3 Sudoeste 10 Sudoeste 0 -- -- 66
2017-08-27 09:00:00 20.9 0 Calma 5 Sudoeste 0 -- -- 68
2017-08-27 08:00:00 21.4 2 Oeste 21 Oeste 0 -- -- 65
2017-08-27 07:00:00 22.8 8 Sudoeste 15 Sudeste 0 -- -- 61
2017-08-27 06:00:00 23 5 Sudeste 10 Sudeste 0 -- -- 56
2017-08-27 05:00:00 23.5 3 Nordeste 14 Oeste 0 -- -- 51
2017-08-27 04:00:00 23.8 4 Sudoeste 9 Oeste 0 -- -- 48
2017-08-27 03:00:00 24.1 3 Sudoeste 7 Oeste 0 -- -- 46
2017-08-27 02:00:00 24.1 0 Calma -- -- 0 -- -- 44
2017-08-27 01:00:00 24.8 0 Calma 2 Sudeste 0 -- -- 40
2017-08-27 00:00:00 25.1 3 Norte 8 Oeste 0 -- -- 38
2017-08-26 23:00:00 26.3 4 Noroeste 14 Oeste 0 -- -- 33
2017-08-26 22:00:00 28.1 4 Oeste 6 Oeste 0 -- -- 32
2017-08-26 21:00:00 31.3 4 Noroeste 14 Oeste 0 -- -- 28
2017-08-26 20:00:00 32.6 8 Sudoeste 17 Oeste 0 -- -- 27
2017-08-26 19:00:00 32.9 11 Oeste 25 Oeste 0 -- -- 26
2017-08-26 18:00:00 32.7 13 Oeste 28 Oeste 0 -- -- 27
2017-08-26 17:00:00 33.2 18 Oeste 37 Oeste 0 -- -- 26
2017-08-26 16:00:00 32 19 Sudoeste 39 Sudoeste 0 -- -- 30
2017-08-26 15:00:00 28.6 8 Sur 24 Sudoeste 0 -- -- 41
2017-08-26 14:00:00 27.7 12 Sudeste 56 Sudeste 2 -- -- 39
2017-08-26 13:00:00 30 10 Sur 22 Sur 0 -- -- 35
2017-08-26 12:00:00 29.2 14 Sur 23 Sur 0 -- -- 35
2017-08-26 11:00:00 24.8 4 Sudeste 12 Nordeste 0 -- -- 43
2017-08-26 10:00:00 21.3 2 Norte 15 Norte 0 -- -- 54
2017-08-26 09:00:00 19.2 5 Nordeste 10 Nordeste 0 -- -- 41
2017-08-26 08:00:00 18.4 6 Norte 17 Sur 0 -- -- 37
2017-08-26 07:00:00 17.8 4 Noroeste 9 Noroeste 0 -- -- 37
2017-08-26 06:00:00 16.8 0 Calma 3 Este 0 -- -- 38
2017-08-26 05:00:00 18 0 Calma 4 Norte 0 -- -- 33
2017-08-26 04:00:00 18.9 4 Noroeste 9 Noroeste 0 -- -- 31
2017-08-26 03:00:00 19.3 2 Este 4 Sudeste 0 -- -- 30
2017-08-26 02:00:00 18.8 3 Sudeste 4 Este 0 -- -- 29
2017-08-26 01:00:00 19.4 3 Este 4 Sudeste 0 -- -- 28
2017-08-26 00:00:00 20.5 0 Calma 7 Noroeste 0 -- -- 25